createdAt,value
2022-09-16T00:00:04.617Z,8.4
2022-09-16T00:01:04.660Z,8.4
2022-09-16T00:02:04.991Z,8.4
2022-09-16T00:03:04.618Z,8.4
2022-09-16T00:04:04.605Z,8.4
2022-09-16T00:05:04.607Z,8.4
2022-09-16T00:06:04.635Z,8.4
2022-09-16T00:07:04.621Z,8.4
2022-09-16T00:08:04.615Z,8.4
2022-09-16T00:09:04.614Z,8.4
2022-09-16T00:10:04.642Z,8.4
2022-09-16T00:11:04.614Z,8.4
2022-09-16T00:12:04.627Z,8.4
2022-09-16T00:13:04.614Z,8.4
2022-09-16T00:14:04.631Z,8.4
2022-09-16T00:15:04.605Z,8.4
2022-09-16T00:16:04.645Z,8.4
2022-09-16T00:17:04.610Z,8.4
2022-09-16T00:18:04.616Z,8.4
2022-09-16T00:19:04.619Z,8.4
2022-09-16T00:20:04.618Z,8.4
2022-09-16T00:21:04.613Z,8.4
2022-09-16T00:22:04.610Z,8.3
2022-09-16T00:23:04.613Z,8.4
2022-09-16T00:24:04.669Z,8.4
2022-09-16T00:25:04.605Z,8.4
2022-09-16T00:26:04.617Z,8.4
2022-09-16T00:27:04.632Z,8.4
2022-09-16T00:28:04.614Z,8.4
2022-09-16T00:29:04.632Z,8.4
2022-09-16T00:30:04.621Z,8.4
2022-09-16T00:31:04.689Z,8.4
2022-09-16T00:32:04.603Z,8.4
2022-09-16T00:33:04.611Z,8.4
2022-09-16T00:34:04.618Z,8.4
2022-09-16T00:35:04.610Z,8.4
2022-09-16T00:36:04.614Z,8.4
2022-09-16T00:37:04.607Z,8.3
2022-09-16T00:38:04.612Z,8.4
2022-09-16T00:39:04.603Z,8.4
2022-09-16T00:40:04.690Z,8.3
2022-09-16T00:41:04.625Z,8.4
2022-09-16T00:42:04.606Z,8.4
2022-09-16T00:43:04.616Z,8.3
2022-09-16T00:44:04.623Z,8.3
2022-09-16T00:45:04.703Z,8.4
2022-09-16T00:46:04.645Z,8.4
2022-09-16T00:47:04.691Z,8.3
2022-09-16T00:48:04.622Z,8.3
2022-09-16T00:49:04.618Z,8.3
2022-09-16T00:50:04.610Z,8.3
2022-09-16T00:51:04.622Z,8.3
2022-09-16T00:52:04.632Z,8.3
2022-09-16T00:53:04.630Z,8.3
2022-09-16T00:54:04.609Z,8.3
2022-09-16T00:55:04.634Z,8.3
2022-09-16T00:56:04.638Z,8.3
2022-09-16T00:57:04.623Z,8.3
2022-09-16T00:58:04.620Z,8.3
2022-09-16T00:59:04.621Z,8.3
2022-09-16T01:00:04.641Z,8.3
2022-09-16T01:01:04.709Z,8.3
2022-09-16T01:02:04.701Z,8.3
2022-09-16T01:03:04.634Z,8.3
2022-09-16T01:04:04.621Z,8.3
2022-09-16T01:05:04.618Z,8.3
2022-09-16T01:06:04.649Z,8.3
2022-09-16T01:07:04.624Z,8.3
2022-09-16T01:08:04.618Z,8.3
2022-09-16T01:09:04.671Z,8.3
2022-09-16T01:10:04.623Z,8.3
2022-09-16T01:11:04.635Z,8.3
2022-09-16T01:12:04.617Z,8.3
2022-09-16T01:13:04.613Z,8.3
2022-09-16T01:14:04.659Z,8.3
2022-09-16T01:15:04.618Z,8.3
2022-09-16T01:16:04.689Z,8.3
2022-09-16T01:17:04.615Z,8.3
2022-09-16T01:18:04.620Z,8.3
2022-09-16T01:19:04.611Z,8.2
2022-09-16T01:20:04.631Z,8.3
2022-09-16T01:21:04.634Z,8.2
2022-09-16T01:22:04.624Z,8.2
2022-09-16T01:23:04.636Z,8.3
2022-09-16T01:24:04.617Z,8.3
2022-09-16T01:25:04.616Z,8.3
2022-09-16T01:26:04.681Z,8.3
2022-09-16T01:27:04.632Z,8.3
2022-09-16T01:28:04.622Z,8.3
2022-09-16T01:29:04.612Z,8.3
2022-09-16T01:30:04.628Z,8.3
2022-09-16T01:31:04.794Z,8.3
2022-09-16T01:32:04.622Z,8.3
2022-09-16T01:33:04.635Z,8.3
2022-09-16T01:34:04.616Z,8.3
2022-09-16T01:35:04.637Z,8.2
2022-09-16T01:36:04.647Z,8.3
2022-09-16T01:37:04.626Z,8.3
2022-09-16T01:38:04.630Z,8.3
2022-09-16T01:39:04.630Z,8.3
2022-09-16T01:40:04.700Z,8.3
2022-09-16T01:41:04.689Z,8.3
2022-09-16T01:42:04.619Z,8.3
2022-09-16T01:43:04.626Z,8.3
2022-09-16T01:44:04.613Z,8.3
2022-09-16T01:45:04.638Z,8.3
2022-09-16T01:46:04.689Z,8.2
2022-09-16T01:47:04.629Z,8.3
2022-09-16T01:48:04.675Z,8.3
2022-09-16T01:49:04.617Z,8.3
2022-09-16T01:50:04.630Z,8.3
2022-09-16T01:51:04.649Z,8.3
2022-09-16T01:52:04.615Z,8.3
2022-09-16T01:53:04.678Z,8.3
2022-09-16T01:54:04.626Z,8.3
2022-09-16T01:55:04.635Z,8.3
2022-09-16T01:56:04.647Z,8.3
2022-09-16T01:57:04.669Z,8.3
2022-09-16T01:58:04.627Z,8.2
2022-09-16T01:59:04.630Z,8.3
2022-09-16T02:00:04.623Z,8.3
2022-09-16T02:01:04.649Z,8.3
2022-09-16T02:02:04.758Z,8.2
2022-09-16T02:03:04.618Z,8.2
2022-09-16T02:04:04.613Z,8.2
2022-09-16T02:05:04.645Z,8.3
2022-09-16T02:06:04.646Z,8.3
2022-09-16T02:07:04.634Z,8.3
2022-09-16T02:08:04.632Z,8.2
2022-09-16T02:09:04.635Z,8.2
2022-09-16T02:10:04.613Z,8.3
2022-09-16T02:11:04.672Z,8.2
2022-09-16T02:12:04.639Z,8.2
2022-09-16T02:13:04.617Z,8.2
2022-09-16T02:14:04.631Z,8.3
2022-09-16T02:15:04.685Z,8.2
2022-09-16T02:16:04.684Z,8.3
2022-09-16T02:17:04.627Z,8.3
2022-09-16T02:18:04.637Z,8.2
2022-09-16T02:19:04.631Z,8.3
2022-09-16T02:20:04.613Z,8.3
2022-09-16T02:21:04.661Z,8.3
2022-09-16T02:22:04.626Z,8.3
2022-09-16T02:23:04.642Z,8.3
2022-09-16T02:24:04.623Z,8.3
2022-09-16T02:25:04.633Z,8.3
2022-09-16T02:26:04.810Z,8.3
2022-09-16T02:27:04.656Z,8.3
2022-09-16T02:28:04.673Z,8.3
2022-09-16T02:29:04.624Z,8.4
2022-09-16T02:30:04.631Z,8.3
2022-09-16T02:31:04.735Z,8.3
2022-09-16T02:32:04.709Z,8.3
2022-09-16T02:33:04.631Z,8.3
2022-09-16T02:34:04.620Z,8.3
2022-09-16T02:35:04.638Z,8.3
2022-09-16T02:36:04.649Z,8.3
2022-09-16T02:37:04.609Z,8.3
2022-09-16T02:38:04.626Z,8.3
2022-09-16T02:39:04.651Z,8.3
2022-09-16T02:40:04.660Z,8.4
2022-09-16T02:41:04.655Z,8.4
2022-09-16T02:42:04.674Z,8.4
2022-09-16T02:43:04.623Z,8.3
2022-09-16T02:44:04.634Z,8.4
2022-09-16T02:45:04.630Z,8.4
2022-09-16T02:46:04.733Z,8.4
2022-09-16T02:47:04.626Z,8.4
2022-09-16T02:48:04.637Z,8.3
2022-09-16T02:49:04.639Z,8.3
2022-09-16T02:50:04.635Z,8.3
2022-09-16T02:51:04.659Z,8.3
2022-09-16T02:52:04.633Z,8.3
2022-09-16T02:53:04.642Z,8.3
2022-09-16T02:54:04.683Z,8.4
2022-09-16T02:55:04.640Z,8.4
2022-09-16T02:56:04.661Z,8.4
2022-09-16T02:57:04.625Z,8.4
2022-09-16T02:58:04.630Z,8.4
2022-09-16T02:59:04.643Z,8.4
2022-09-16T03:00:04.634Z,8.4
2022-09-16T03:01:04.655Z,8.4
2022-09-16T03:02:04.696Z,8.4
2022-09-16T03:03:04.694Z,8.4
2022-09-16T03:04:04.632Z,8.4
2022-09-16T03:05:04.632Z,8.4
2022-09-16T03:06:04.729Z,8.4
2022-09-16T03:07:04.616Z,8.4
2022-09-16T03:08:04.636Z,8.4
2022-09-16T03:09:04.624Z,8.4
2022-09-16T03:10:04.627Z,8.4
2022-09-16T03:11:04.636Z,8.4
2022-09-16T03:12:04.645Z,8.4
2022-09-16T03:13:04.628Z,8.4
2022-09-16T03:14:04.638Z,8.4
2022-09-16T03:15:04.642Z,8.5
2022-09-16T03:16:04.738Z,8.5
2022-09-16T03:17:04.633Z,8.5
2022-09-16T03:18:04.686Z,8.4
2022-09-16T03:19:04.626Z,8.5
2022-09-16T03:20:04.653Z,8.5
2022-09-16T03:21:04.650Z,8.5
2022-09-16T03:22:04.645Z,8.5
2022-09-16T03:23:04.629Z,8.5
2022-09-16T03:24:04.644Z,8.5
2022-09-16T03:25:04.629Z,8.5
2022-09-16T03:26:04.799Z,8.5
2022-09-16T03:27:04.630Z,8.5
2022-09-16T03:28:04.650Z,8.5
2022-09-16T03:29:04.642Z,8.5
2022-09-16T03:30:04.647Z,8.5
2022-09-16T03:31:04.700Z,8.6
2022-09-16T03:32:04.644Z,8.6
2022-09-16T03:33:04.638Z,8.6
2022-09-16T03:34:04.634Z,8.6
2022-09-16T03:35:04.632Z,8.6
2022-09-16T03:36:04.655Z,8.6
2022-09-16T03:37:04.639Z,8.5
2022-09-16T03:38:04.635Z,8.5
2022-09-16T03:39:04.640Z,8.5
2022-09-16T03:40:04.726Z,8.6
2022-09-16T03:41:04.657Z,8.6
2022-09-16T03:42:04.636Z,8.7
2022-09-16T03:43:04.622Z,8.7
2022-09-16T03:44:04.679Z,8.6
2022-09-16T03:45:04.642Z,8.7
2022-09-16T03:46:04.711Z,8.7
2022-09-16T03:47:04.649Z,8.7
2022-09-16T03:48:04.645Z,8.7
2022-09-16T03:49:04.692Z,8.7
2022-09-16T03:50:04.633Z,8.7
2022-09-16T03:51:04.656Z,8.7
2022-09-16T03:52:04.630Z,8.7
2022-09-16T03:53:04.644Z,8.7
2022-09-16T03:54:04.642Z,8.7
2022-09-16T03:55:04.623Z,8.7
2022-09-16T03:56:04.649Z,8.7
2022-09-16T03:57:04.647Z,8.7
2022-09-16T03:58:04.629Z,8.7
2022-09-16T03:59:04.635Z,8.7
2022-09-16T04:00:04.643Z,8.7
2022-09-16T04:01:04.686Z,8.7
2022-09-16T04:02:04.672Z,8.7
2022-09-16T04:03:04.791Z,8.7
2022-09-16T04:04:04.639Z,8.7
2022-09-16T04:05:04.629Z,8.7
2022-09-16T04:06:04.655Z,8.7
2022-09-16T04:07:04.651Z,8.7
2022-09-16T04:08:04.639Z,8.7
2022-09-16T04:09:04.645Z,8.7
2022-09-16T04:10:04.644Z,8.8
2022-09-16T04:11:04.680Z,8.7
2022-09-16T04:12:04.627Z,8.7
2022-09-16T04:13:04.647Z,8.7
2022-09-16T04:14:04.638Z,8.7
2022-09-16T04:15:04.646Z,8.8
2022-09-16T04:16:04.817Z,8.8
2022-09-16T04:17:04.640Z,8.8
2022-09-16T04:18:04.652Z,8.7
2022-09-16T04:19:04.692Z,8.7
2022-09-16T04:20:04.649Z,8.8
2022-09-16T04:21:04.661Z,8.7
2022-09-16T04:22:04.646Z,8.8
2022-09-16T04:23:04.651Z,8.8
2022-09-16T04:24:06.032Z,8.8
2022-09-16T04:25:04.671Z,8.8
2022-09-16T04:26:04.680Z,8.8
2022-09-16T04:27:04.635Z,8.8
2022-09-16T04:28:04.640Z,8.8
2022-09-16T04:29:04.651Z,8.7
2022-09-16T04:30:04.633Z,8.8
2022-09-16T04:31:04.706Z,8.8
2022-09-16T04:32:04.676Z,8.8
2022-09-16T04:33:04.641Z,8.8
2022-09-16T04:34:04.633Z,8.8
2022-09-16T04:35:04.634Z,8.8
2022-09-16T04:36:04.765Z,8.8
2022-09-16T04:37:04.636Z,8.8
2022-09-16T04:38:04.648Z,8.8
2022-09-16T04:39:04.668Z,8.8
2022-09-16T04:40:05.314Z,8.8
2022-09-16T04:41:04.657Z,8.8
2022-09-16T04:42:04.651Z,8.8
2022-09-16T04:43:04.647Z,8.8
2022-09-16T04:44:04.656Z,8.7
2022-09-16T04:45:04.664Z,8.8
2022-09-16T04:46:04.730Z,8.7
2022-09-16T04:47:04.632Z,8.7
2022-09-16T04:48:04.654Z,8.7
2022-09-16T04:49:04.655Z,8.7
2022-09-16T04:50:04.648Z,8.7
2022-09-16T04:51:04.650Z,8.7
2022-09-16T04:52:04.644Z,8.7
2022-09-16T04:53:04.651Z,8.8
2022-09-16T04:54:04.639Z,8.8
2022-09-16T04:55:04.639Z,8.7
2022-09-16T04:56:04.668Z,8.7
2022-09-16T04:57:04.648Z,8.8
2022-09-16T04:58:04.645Z,8.8
2022-09-16T04:59:04.643Z,8.8
2022-09-16T05:00:04.650Z,8.7
2022-09-16T05:01:04.767Z,8.7
2022-09-16T05:02:04.646Z,8.7
2022-09-16T05:03:04.778Z,8.7
2022-09-16T05:04:04.643Z,8.7
2022-09-16T05:05:04.640Z,8.7
2022-09-16T05:06:04.671Z,8.7
2022-09-16T05:07:04.656Z,8.7
2022-09-16T05:08:04.723Z,8.7
2022-09-16T05:09:04.647Z,8.7
2022-09-16T05:10:04.660Z,8.7
2022-09-16T05:11:04.662Z,8.7
2022-09-16T05:12:04.654Z,8.7
2022-09-16T05:13:04.648Z,8.7
2022-09-16T05:14:04.636Z,8.7
2022-09-16T05:15:04.659Z,8.7
2022-09-16T05:16:04.799Z,8.7
2022-09-16T05:17:04.644Z,8.6
2022-09-16T05:18:04.652Z,8.6
2022-09-16T05:19:04.714Z,8.6
2022-09-16T05:20:04.735Z,8.7
2022-09-16T05:21:04.660Z,8.6
2022-09-16T05:22:04.658Z,8.7
2022-09-16T05:23:04.661Z,8.6
2022-09-16T05:24:04.649Z,8.6
2022-09-16T05:25:04.735Z,8.6
2022-09-16T05:26:04.668Z,8.7
2022-09-16T05:27:04.640Z,8.6
2022-09-16T05:28:04.654Z,8.6
2022-09-16T05:29:04.647Z,8.6
2022-09-16T05:30:04.655Z,8.6
2022-09-16T05:31:04.718Z,8.6
2022-09-16T05:32:04.711Z,8.6
2022-09-16T05:33:04.653Z,8.6
2022-09-16T05:34:04.831Z,8.6
2022-09-16T05:35:04.659Z,8.6
2022-09-16T05:36:04.688Z,8.6
2022-09-16T05:37:04.658Z,8.6
2022-09-16T05:38:04.664Z,8.6
2022-09-16T05:39:22.677Z,8.6
2022-09-16T05:40:04.717Z,8.5
2022-09-16T05:41:04.662Z,8.6
2022-09-16T05:42:04.648Z,8.6
2022-09-16T05:43:04.651Z,8.6
2022-09-16T05:44:04.651Z,8.6
2022-09-16T05:45:04.665Z,8.5
2022-09-16T05:46:04.830Z,8.6
2022-09-16T05:47:04.652Z,8.6
2022-09-16T05:48:04.645Z,8.5
2022-09-16T05:49:04.640Z,8.6
2022-09-16T05:50:04.656Z,8.5
2022-09-16T05:51:04.669Z,8.6
2022-09-16T05:52:04.650Z,8.6
2022-09-16T05:53:04.655Z,8.6
2022-09-16T05:54:04.661Z,8.6
2022-09-16T05:55:04.646Z,8.5
2022-09-16T05:56:04.680Z,8.5
2022-09-16T05:57:06.955Z,8.5
2022-09-16T05:58:04.662Z,8.6
2022-09-16T05:59:04.651Z,8.5
2022-09-16T06:00:04.654Z,8.6
2022-09-16T06:01:04.772Z,8.5
2022-09-16T06:02:04.753Z,8.5
2022-09-16T06:03:04.662Z,8.5
2022-09-16T06:04:04.657Z,8.5
2022-09-16T06:05:04.769Z,8.6
2022-09-16T06:06:04.668Z,8.6
2022-09-16T06:07:04.650Z,8.5
2022-09-16T06:08:04.672Z,8.5
2022-09-16T06:09:04.642Z,8.5
2022-09-16T06:10:04.660Z,8.5
2022-09-16T06:11:04.728Z,8.5
2022-09-16T06:12:04.662Z,8.5
2022-09-16T06:13:04.664Z,8.4
2022-09-16T06:14:04.644Z,8.4
2022-09-16T06:15:04.655Z,8.4
2022-09-16T06:16:04.739Z,8.4
2022-09-16T06:17:04.644Z,8.4
2022-09-16T06:18:06.604Z,8.4
2022-09-16T06:19:04.665Z,8.4
2022-09-16T06:20:04.661Z,8.4
2022-09-16T06:21:04.684Z,8.3
2022-09-16T06:22:04.679Z,8.3
2022-09-16T06:23:04.676Z,8.4
2022-09-16T06:24:04.642Z,8.4
2022-09-16T06:25:04.665Z,8.3
2022-09-16T06:26:04.680Z,8.3
2022-09-16T06:27:04.661Z,8.3
2022-09-16T06:28:04.727Z,8.3
2022-09-16T06:29:04.665Z,8.3
2022-09-16T06:30:04.669Z,8.3
2022-09-16T06:31:04.760Z,8.3
2022-09-16T06:32:04.646Z,8.3
2022-09-16T06:33:04.665Z,8.3
2022-09-16T06:34:04.655Z,8.3
2022-09-16T06:35:04.651Z,8.4
2022-09-16T06:36:04.805Z,8.5
2022-09-16T06:37:04.676Z,8.5
2022-09-16T06:38:04.667Z,8.5
2022-09-16T06:39:04.661Z,8.5
2022-09-16T06:40:04.730Z,8.4
2022-09-16T06:41:04.675Z,8.2
2022-09-16T06:42:04.725Z,8.2
2022-09-16T06:43:04.672Z,8.3
2022-09-16T06:44:04.644Z,8.4
2022-09-16T06:45:04.662Z,8.4
2022-09-16T06:46:04.760Z,8.4
2022-09-16T06:47:04.652Z,8.4
2022-09-16T06:48:04.656Z,8.4
2022-09-16T06:49:06.459Z,8.4
2022-09-16T06:50:04.703Z,8.3
2022-09-16T06:51:04.690Z,8.3
2022-09-16T06:52:04.665Z,8.3
2022-09-16T06:53:04.663Z,8.2
2022-09-16T06:54:04.660Z,8.1
2022-09-16T06:55:04.652Z,8.2
2022-09-16T06:56:04.664Z,8.2
2022-09-16T06:57:06.576Z,8.1
2022-09-16T06:58:04.662Z,8.1
2022-09-16T06:59:04.678Z,8.1
2022-09-16T07:00:04.665Z,8.2
2022-09-16T07:01:04.792Z,8.2
2022-09-16T07:02:04.772Z,8.3
2022-09-16T07:03:04.668Z,8.3
2022-09-16T07:04:04.715Z,8.3
2022-09-16T07:06:04.680Z,8.3
2022-09-16T07:07:09.574Z,8.3
2022-09-16T07:08:04.660Z,8.3
2022-09-16T07:09:04.667Z,8.2
2022-09-16T07:10:04.657Z,8.3
2022-09-16T07:11:04.674Z,8.1
2022-09-16T07:12:04.725Z,8.1
2022-09-16T07:13:04.659Z,8.1
2022-09-16T07:14:14.981Z,8.2
2022-09-16T07:15:04.678Z,8.3
2022-09-16T07:16:13.751Z,8.3
2022-09-16T07:17:04.733Z,8.3
2022-09-16T07:18:04.663Z,7.9
2022-09-16T07:19:04.935Z,7.9
2022-09-16T07:20:04.662Z,8
2022-09-16T07:21:04.683Z,8
2022-09-16T07:22:04.666Z,8
2022-09-16T07:23:04.676Z,8.1
2022-09-16T07:24:04.676Z,8.2
2022-09-16T07:25:04.677Z,8.2
2022-09-16T07:26:04.678Z,8.2
2022-09-16T07:27:04.674Z,8.2
2022-09-16T07:28:04.675Z,8.1
2022-09-16T07:29:04.676Z,8
2022-09-16T07:30:08.956Z,8
2022-09-16T07:31:04.812Z,7.9
2022-09-16T07:32:04.692Z,8
2022-09-16T07:33:04.662Z,8
2022-09-16T07:34:05.070Z,8
2022-09-16T07:35:04.728Z,8
2022-09-16T07:36:04.683Z,8
2022-09-16T07:37:04.673Z,8.2
2022-09-16T07:38:04.797Z,8.1
2022-09-16T07:39:04.659Z,8.1
2022-09-16T07:40:04.792Z,8
2022-09-16T07:41:04.675Z,8
2022-09-16T07:42:06.262Z,8
2022-09-16T07:43:04.665Z,8
2022-09-16T07:44:04.658Z,8
2022-09-16T07:45:04.679Z,8.1
2022-09-16T07:46:04.767Z,8
2022-09-16T07:47:04.687Z,8
2022-09-16T07:48:04.668Z,8
2022-09-16T07:49:04.669Z,8
2022-09-16T07:50:04.665Z,8.1
2022-09-16T07:51:04.687Z,8.1
2022-09-16T07:52:04.718Z,8.1
2022-09-16T07:53:04.667Z,8.2
2022-09-16T07:54:04.658Z,8.2
2022-09-16T07:55:04.669Z,8.1
2022-09-16T07:56:04.682Z,8.1
2022-09-16T07:57:04.670Z,8.2
2022-09-16T07:58:04.661Z,8.2
2022-09-16T07:59:04.667Z,8.1
2022-09-16T08:00:04.672Z,8.2
2022-09-16T08:01:05.282Z,8.2
2022-09-16T08:02:04.888Z,8.2
2022-09-16T08:03:04.738Z,8.2
2022-09-16T08:04:04.751Z,8.2
2022-09-16T08:05:04.675Z,8.2
2022-09-16T08:06:04.706Z,8.2
2022-09-16T08:07:04.674Z,8.3
2022-09-16T08:08:04.677Z,8.3
2022-09-16T08:09:21.083Z,8.3
2022-09-16T08:10:04.685Z,8.3
2022-09-16T08:11:04.686Z,8.2
2022-09-16T08:12:04.688Z,8.2
2022-09-16T08:13:04.672Z,8.1
2022-09-16T08:14:04.661Z,8.2
2022-09-16T08:15:04.682Z,8.2
2022-09-16T08:16:04.778Z,8.3
2022-09-16T08:17:04.665Z,8.3
2022-09-16T08:18:04.693Z,8.2
2022-09-16T08:19:04.678Z,8.2
2022-09-16T08:20:04.674Z,8.1
2022-09-16T08:21:04.683Z,8.2
2022-09-16T08:22:04.658Z,8.2
2022-09-16T08:23:04.665Z,8.2
2022-09-16T08:24:04.664Z,8.1
2022-09-16T08:25:04.673Z,8.1
2022-09-16T08:26:04.696Z,8.1
2022-09-16T08:27:04.672Z,8.1
2022-09-16T08:28:04.666Z,8.1
2022-09-16T08:29:08.754Z,8.1
2022-09-16T08:30:04.678Z,8
2022-09-16T08:31:04.689Z,8
2022-09-16T08:32:04.724Z,8
2022-09-16T08:33:04.734Z,8
2022-09-16T08:34:04.678Z,7.9
2022-09-16T08:35:04.661Z,8.1
2022-09-16T08:36:04.799Z,8
2022-09-16T08:37:04.678Z,8.1
2022-09-16T08:38:04.669Z,8.1
2022-09-16T08:39:04.678Z,8
2022-09-16T08:40:05.037Z,8
2022-09-16T08:41:04.683Z,8
2022-09-16T08:42:04.669Z,7.9
2022-09-16T08:43:04.677Z,7.9
2022-09-16T08:44:04.683Z,8
2022-09-16T08:45:04.660Z,8.1
2022-09-16T08:46:04.826Z,8.1
2022-09-16T08:47:04.673Z,8.1
2022-09-16T08:48:04.684Z,8
2022-09-16T08:49:04.767Z,8
2022-09-16T08:50:04.734Z,8
2022-09-16T08:51:04.707Z,8.1
2022-09-16T08:52:04.672Z,8.1
2022-09-16T08:53:04.717Z,8.2
2022-09-16T08:54:04.681Z,8.3
2022-09-16T08:55:04.689Z,8.3
2022-09-16T08:56:04.683Z,8.3
2022-09-16T08:57:04.692Z,8.2
2022-09-16T08:58:04.678Z,8.2
2022-09-16T08:59:04.670Z,8.2
2022-09-16T09:00:04.722Z,8.3
2022-09-16T09:01:04.826Z,8.2
2022-09-16T09:02:09.111Z,8.3
2022-09-16T09:03:04.685Z,8.2
2022-09-16T09:04:04.677Z,8.1
2022-09-16T09:05:04.683Z,8.2
2022-09-16T09:06:04.709Z,8.2
2022-09-16T09:07:04.690Z,8.3
2022-09-16T09:08:04.677Z,8.3
2022-09-16T09:09:04.699Z,8.2
2022-09-16T09:10:07.151Z,8
2022-09-16T09:11:04.874Z,8.1
2022-09-16T09:12:04.698Z,8.1
2022-09-16T09:13:04.788Z,8.1
2022-09-16T09:14:04.689Z,8.1
2022-09-16T09:15:04.717Z,8
2022-09-16T09:16:04.731Z,8.1
2022-09-16T09:17:04.668Z,8
2022-09-16T09:18:04.682Z,8
2022-09-16T09:19:04.730Z,8
2022-09-16T09:20:04.683Z,8.1
2022-09-16T09:21:04.720Z,8.2
2022-09-16T09:22:04.687Z,8.1
2022-09-16T09:23:04.692Z,8
2022-09-16T09:24:04.692Z,8
2022-09-16T09:25:04.701Z,8
2022-09-16T09:26:04.692Z,8
2022-09-16T09:27:04.687Z,7.9
2022-09-16T09:28:04.685Z,7.9
2022-09-16T09:29:04.685Z,7.9
2022-09-16T09:30:04.688Z,8
2022-09-16T09:31:08.735Z,8.1
2022-09-16T09:32:04.813Z,8.2
2022-09-16T09:33:04.759Z,8.2
2022-09-16T09:34:04.730Z,8.1
2022-09-16T09:35:04.685Z,7.9
2022-09-16T09:36:04.698Z,7.8
2022-09-16T09:37:04.685Z,7.7
2022-09-16T09:38:04.681Z,7.6
2022-09-16T09:39:04.679Z,7.5
2022-09-16T09:40:04.760Z,7.5
2022-09-16T09:41:04.773Z,7.7
2022-09-16T09:42:04.814Z,7.7
2022-09-16T09:43:04.694Z,7.9
2022-09-16T09:44:04.690Z,7.9
2022-09-16T09:45:04.693Z,8
2022-09-16T09:46:04.839Z,8.1
2022-09-16T09:47:04.747Z,8.1
2022-09-16T09:48:04.689Z,7.7
2022-09-16T09:49:04.714Z,7.7
2022-09-16T09:50:04.669Z,7.7
2022-09-16T09:51:04.702Z,7.7
2022-09-16T09:52:04.695Z,7.7
2022-09-16T09:53:04.733Z,7.6
2022-09-16T09:54:04.679Z,7.6
2022-09-16T09:55:04.695Z,7.8
2022-09-16T09:56:04.708Z,7.8
2022-09-16T09:57:04.690Z,7.8
2022-09-16T09:58:04.691Z,7.8
2022-09-16T09:59:04.688Z,7.7
2022-09-16T10:00:04.706Z,7.8
2022-09-16T10:01:04.766Z,7.9
2022-09-16T10:02:04.744Z,8
2022-09-16T10:03:04.675Z,7.8
2022-09-16T10:04:04.703Z,7.6
2022-09-16T10:05:04.699Z,7.6
2022-09-16T10:06:04.716Z,7.6
2022-09-16T10:08:04.712Z,7.7
2022-09-16T10:09:14.957Z,7.7
2022-09-16T10:10:14.979Z,7.7
2022-09-16T10:11:14.988Z,7.6
2022-09-16T10:12:04.708Z,7.7
2022-09-16T10:14:04.720Z,7.9
2022-09-16T10:15:04.712Z,8
2022-09-16T10:16:04.739Z,8
2022-09-16T10:17:04.697Z,7.8
2022-09-16T10:18:04.687Z,7.9
2022-09-16T10:19:04.684Z,7.8
2022-09-16T10:20:04.700Z,7.8
2022-09-16T10:21:04.700Z,7.9
2022-09-16T10:22:04.707Z,7.9
2022-09-16T10:23:04.688Z,7.7
2022-09-16T10:24:04.717Z,7.8
2022-09-16T10:25:04.686Z,7.9
2022-09-16T10:26:04.703Z,7.9
2022-09-16T10:27:04.699Z,8
2022-09-16T10:28:04.685Z,7.8
2022-09-16T10:29:04.866Z,7.7
2022-09-16T10:30:04.702Z,7.8
2022-09-16T10:31:04.756Z,7.7
2022-09-16T10:32:04.798Z,7.6
2022-09-16T10:33:04.706Z,7.7
2022-09-16T10:34:04.696Z,7.7
2022-09-16T10:35:04.699Z,7.8
2022-09-16T10:36:04.710Z,7.9
2022-09-16T10:37:04.703Z,8
2022-09-16T10:38:04.802Z,8
2022-09-16T10:40:04.888Z,8
2022-09-16T10:41:04.701Z,8.2
2022-09-16T10:42:04.708Z,8.1
2022-09-16T10:43:04.715Z,8.2
2022-09-16T10:44:04.698Z,7.9
2022-09-16T10:45:04.690Z,8
2022-09-16T10:46:04.752Z,7.8
2022-09-16T10:47:04.819Z,7.8
2022-09-16T10:48:07.101Z,7.9
2022-09-16T10:49:05.014Z,8
2022-09-16T10:50:04.760Z,8
2022-09-16T10:51:04.698Z,8.1
2022-09-16T10:52:04.713Z,7.9
2022-09-16T10:53:04.706Z,8
2022-09-16T10:54:04.711Z,8.1
2022-09-16T10:55:04.698Z,7.9
2022-09-16T10:56:04.713Z,7.8
2022-09-16T10:57:04.704Z,7.8
2022-09-16T10:58:04.706Z,7.8
2022-09-16T10:59:04.708Z,7.9
2022-09-16T11:00:04.820Z,8
2022-09-16T11:01:04.864Z,7.8
2022-09-16T11:02:05.115Z,7.8
2022-09-16T11:03:04.689Z,7.9
2022-09-16T11:04:05.385Z,7.9
2022-09-16T11:05:04.710Z,7.7
2022-09-16T11:06:04.692Z,7.9
2022-09-16T11:07:04.686Z,8
2022-09-16T11:08:04.696Z,7.8
2022-09-16T11:09:04.704Z,7.8
2022-09-16T11:10:04.704Z,7.6
2022-09-16T11:11:08.370Z,7.5
2022-09-16T11:12:06.483Z,7.5
2022-09-16T11:13:04.702Z,7.4
2022-09-16T11:14:04.695Z,7.5
2022-09-16T11:15:04.694Z,7.3
2022-09-16T11:16:04.774Z,7.2
2022-09-16T11:17:04.701Z,7.3
2022-09-16T11:18:04.704Z,7.6
2022-09-16T11:19:04.699Z,7.5
2022-09-16T11:20:04.747Z,7.3
2022-09-16T11:21:04.694Z,7.3
2022-09-16T11:22:04.709Z,7.1
2022-09-16T11:23:04.715Z,7.1
2022-09-16T11:24:04.705Z,7.2
2022-09-16T11:25:04.696Z,7.3
2022-09-16T11:26:04.711Z,7.6
2022-09-16T11:27:04.707Z,7.8
2022-09-16T11:28:04.698Z,7.8
2022-09-16T11:29:04.739Z,8
2022-09-16T11:30:04.712Z,8
2022-09-16T11:31:04.876Z,8.1
2022-09-16T11:32:04.728Z,8
2022-09-16T11:33:04.932Z,7.6
2022-09-16T11:34:05.829Z,7.5
2022-09-16T11:35:04.758Z,7.4
2022-09-16T11:36:04.720Z,7.2
2022-09-16T11:37:04.717Z,7.2
2022-09-16T11:38:04.704Z,7.3
2022-09-16T11:39:04.702Z,7.5
2022-09-16T11:40:04.781Z,7.7
2022-09-16T11:41:04.731Z,7.6
2022-09-16T11:42:04.709Z,7.4
2022-09-16T11:43:04.715Z,7.3
2022-09-16T11:44:04.722Z,7.3
2022-09-16T11:45:04.701Z,7.3
2022-09-16T11:46:04.820Z,7.5
2022-09-16T11:47:04.711Z,7.5
2022-09-16T11:48:04.718Z,7.5
2022-09-16T11:49:04.710Z,7.5
2022-09-16T11:50:04.723Z,7.3
2022-09-16T11:51:04.719Z,7.3
2022-09-16T11:52:04.714Z,7.3
2022-09-16T11:53:06.155Z,7.3
2022-09-16T11:54:04.718Z,7.3
2022-09-16T11:55:04.712Z,7.4
2022-09-16T11:56:04.730Z,7.2
2022-09-16T11:57:04.720Z,7
2022-09-16T11:58:04.725Z,7.1
2022-09-16T11:59:04.706Z,6.9
2022-09-16T12:00:04.712Z,7
2022-09-16T12:01:04.701Z,7
2022-09-16T12:02:04.913Z,7
2022-09-16T12:03:04.896Z,7.1
2022-09-16T12:04:04.699Z,7.2
2022-09-16T12:05:04.707Z,7.3
2022-09-16T12:06:04.725Z,7.3
2022-09-16T12:07:04.715Z,7.3
2022-09-16T12:08:04.706Z,7.4
2022-09-16T12:09:07.646Z,7.2
2022-09-16T12:10:04.740Z,7.3
2022-09-16T12:11:04.714Z,7.4
2022-09-16T12:12:04.712Z,7.4
2022-09-16T12:13:04.777Z,7.5
2022-09-16T12:14:05.834Z,7.5
2022-09-16T12:15:05.829Z,7.5
2022-09-16T12:16:04.721Z,7.3
2022-09-16T12:17:04.711Z,7.3
2022-09-16T12:18:04.723Z,7.4
2022-09-16T12:19:04.715Z,7.4
2022-09-16T12:20:04.771Z,7.1
2022-09-16T12:21:04.716Z,7.1
2022-09-16T12:22:04.725Z,7
2022-09-16T12:23:04.714Z,7.1
2022-09-16T12:24:04.712Z,7.1
2022-09-16T12:25:04.711Z,7.1
2022-09-16T12:26:04.725Z,7.1
2022-09-16T12:27:04.723Z,7.1
2022-09-16T12:28:04.718Z,7.1
2022-09-16T12:29:04.718Z,7.1
2022-09-16T12:30:04.726Z,7.1
2022-09-16T12:31:04.781Z,7.2
2022-09-16T12:32:04.716Z,7.2
2022-09-16T12:33:04.864Z,7.2
2022-09-16T12:34:04.712Z,7.4
2022-09-16T12:35:04.717Z,7.3
2022-09-16T12:36:04.725Z,7
2022-09-16T12:37:04.724Z,6.9
2022-09-16T12:38:04.716Z,7
2022-09-16T12:39:04.718Z,7.1
2022-09-16T12:40:04.811Z,7.2
2022-09-16T12:41:04.714Z,7.1
2022-09-16T12:42:04.718Z,7.2
2022-09-16T12:43:04.741Z,7.3
2022-09-16T12:44:17.102Z,7.4
2022-09-16T12:45:04.720Z,7.6
2022-09-16T12:46:04.783Z,7.5
2022-09-16T12:47:04.794Z,7.6
2022-09-16T12:48:04.722Z,7.6
2022-09-16T12:49:04.729Z,7.7
2022-09-16T12:50:04.715Z,7.7
2022-09-16T12:51:04.715Z,7.9
2022-09-16T12:52:04.729Z,8
2022-09-16T12:53:04.719Z,8
2022-09-16T12:54:04.716Z,7.9
2022-09-16T12:55:08.144Z,7.8
2022-09-16T12:56:04.718Z,7.7
2022-09-16T12:57:04.707Z,7.8
2022-09-16T12:58:04.734Z,7.6
2022-09-16T12:59:04.719Z,7.7
2022-09-16T13:00:04.713Z,7.4
2022-09-16T13:01:04.737Z,7.3
2022-09-16T13:02:04.817Z,7.6
2022-09-16T13:03:04.790Z,7.6
2022-09-16T13:04:04.846Z,7.8
2022-09-16T13:05:04.727Z,7.8
2022-09-16T13:06:04.733Z,7.8
2022-09-16T13:07:04.732Z,7.8
2022-09-16T13:08:04.726Z,7.8
2022-09-16T13:09:04.723Z,7.9
2022-09-16T13:10:04.746Z,7.9
2022-09-16T13:11:51.111Z,7.9
2022-09-16T13:12:35.565Z,8
2022-09-16T13:13:04.712Z,8
2022-09-16T13:14:04.728Z,8.1
2022-09-16T13:15:04.730Z,8.1
2022-09-16T13:16:04.869Z,8.2
2022-09-16T13:17:04.725Z,8.1
2022-09-16T13:18:04.734Z,8.2
2022-09-16T13:19:04.735Z,8.3
2022-09-16T13:20:04.715Z,8.3
2022-09-16T13:21:04.799Z,8.3
2022-09-16T13:22:04.726Z,8.4
2022-09-16T13:23:04.728Z,8.4
2022-09-16T13:24:04.726Z,8.3
2022-09-16T13:25:06.975Z,8.3
2022-09-16T13:26:04.726Z,8.3
2022-09-16T13:27:04.718Z,8.3
2022-09-16T13:28:04.732Z,8.4
2022-09-16T13:29:04.736Z,8.4
2022-09-16T13:30:04.725Z,8.5
2022-09-16T13:31:04.774Z,8.5
2022-09-16T13:32:04.734Z,8.5
2022-09-16T13:33:04.715Z,8.3
2022-09-16T13:34:04.728Z,8.3
2022-09-16T13:36:04.729Z,8.5
2022-09-16T13:37:04.723Z,8.6
2022-09-16T13:38:04.720Z,8.7
2022-09-16T13:39:04.745Z,8.8
2022-09-16T13:40:04.764Z,8.7
2022-09-16T13:41:04.732Z,8.7
2022-09-16T13:42:04.734Z,8.8
2022-09-16T13:43:04.802Z,8.8
2022-09-16T13:44:04.715Z,8.8
2022-09-16T13:45:04.750Z,8.9
2022-09-16T13:46:04.801Z,8.9
2022-09-16T13:47:04.732Z,8.9
2022-09-16T13:48:04.734Z,8.8
2022-09-16T13:49:04.727Z,8.9
2022-09-16T13:50:04.743Z,8.9
2022-09-16T13:51:04.847Z,8.9
2022-09-16T13:52:04.740Z,8.9
2022-09-16T13:53:04.732Z,8.9
2022-09-16T13:54:04.840Z,9
2022-09-16T13:55:12.636Z,9
2022-09-16T13:56:04.724Z,9